createdAt,value
2022-11-15T00:00:18.728Z,14.13
2022-11-15T00:03:04.020Z,14.20
2022-11-15T00:05:49.195Z,14.47
2022-11-15T00:08:34.572Z,15.67
2022-11-15T00:11:19.434Z,15.10
2022-11-15T00:14:04.440Z,15.30
2022-11-15T00:16:49.676Z,14.70
2022-11-15T00:19:34.907Z,15.00
2022-11-15T00:22:20.451Z,14.93
2022-11-15T00:25:05.980Z,15.30
2022-11-15T00:27:52.713Z,13.90
2022-11-15T00:30:37.557Z,14.07
2022-11-15T00:33:22.830Z,14.50
2022-11-15T00:36:10.164Z,15.73
2022-11-15T00:38:55.073Z,16.10
2022-11-15T00:41:40.276Z,13.97
2022-11-15T00:44:25.108Z,14.70
2022-11-15T00:47:10.375Z,14.47
2022-11-15T00:49:55.365Z,14.67
2022-11-15T00:52:40.338Z,14.63
2022-11-15T00:55:25.542Z,14.67
2022-11-15T00:58:10.689Z,13.80
2022-11-15T01:00:56.203Z,15.03
2022-11-15T01:03:42.286Z,14.93
2022-11-15T01:06:27.490Z,14.43
2022-11-15T01:09:12.618Z,15.47
2022-11-15T01:11:57.467Z,15.33
2022-11-15T01:14:42.832Z,14.77
2022-11-15T01:17:28.104Z,16.57
2022-11-15T01:20:13.266Z,15.10
2022-11-15T01:22:58.185Z,14.67
2022-11-15T01:25:43.193Z,16.50
2022-11-15T01:28:32.336Z,16.70
2022-11-15T01:31:19.261Z,16.50
2022-11-15T01:34:04.603Z,14.03
2022-11-15T01:36:49.973Z,16.40
2022-11-15T01:39:34.935Z,16.87
2022-11-15T01:55:35.346Z,18.70
2022-11-15T01:58:20.569Z,16.30
2022-11-15T02:01:05.859Z,16.87
2022-11-15T02:04:01.806Z,16.53
2022-11-15T02:06:47.879Z,16.33
2022-11-15T02:09:32.842Z,18.50
2022-11-15T02:12:20.167Z,18.07
2022-11-15T02:15:06.368Z,16.60
2022-11-15T02:18:17.455Z,16.77
2022-11-15T02:21:07.118Z,16.23
2022-11-15T02:23:52.101Z,15.67
2022-11-15T02:26:43.515Z,16.20
2022-11-15T02:29:42.085Z,14.90
2022-11-15T02:32:46.121Z,14.67
2022-11-15T02:35:52.533Z,14.43
2022-11-15T02:38:56.419Z,14.83
2022-11-15T02:41:50.609Z,14.73
2022-11-15T02:44:41.032Z,13.57
2022-11-15T02:47:28.427Z,14.33
2022-11-15T02:50:16.847Z,13.57
2022-11-15T02:53:01.871Z,12.33
2022-11-15T02:55:50.190Z,11.77
2022-11-15T02:58:44.151Z,13.03
2022-11-15T03:01:29.184Z,13.07
2022-11-15T03:04:23.439Z,12.83
2022-11-15T03:07:23.028Z,13.57
2022-11-15T03:10:16.641Z,13.23
2022-11-15T03:13:15.755Z,13.00
2022-11-15T03:16:05.223Z,13.23
2022-11-15T03:19:10.350Z,12.40
2022-11-15T03:21:57.068Z,12.27
2022-11-15T03:24:44.478Z,12.07
2022-11-15T03:27:32.182Z,12.07
2022-11-15T03:30:17.892Z,12.03
2022-11-15T03:33:03.478Z,11.13
2022-11-15T03:35:49.089Z,13.00
2022-11-15T03:38:35.975Z,12.10
2022-11-15T03:41:24.452Z,12.03
2022-11-15T03:44:21.035Z,12.50
2022-11-15T03:47:06.270Z,13.03
2022-11-15T03:49:58.910Z,11.80
2022-11-15T03:52:45.714Z,12.70
2022-11-15T03:55:32.873Z,12.80
2022-11-15T03:58:18.183Z,12.27
2022-11-15T04:01:03.426Z,11.17
2022-11-15T04:03:48.740Z,11.57
2022-11-15T04:06:34.738Z,12.30
2022-11-15T04:09:19.830Z,11.53
2022-11-15T04:12:04.861Z,12.77
2022-11-15T04:15:08.097Z,12.70
2022-11-15T04:17:54.398Z,12.77
2022-11-15T04:20:58.338Z,13.03
2022-11-15T04:24:06.326Z,12.60
2022-11-15T04:26:51.822Z,13.53
2022-11-15T04:29:36.797Z,12.47
2022-11-15T04:32:22.171Z,13.13
2022-11-15T04:35:07.159Z,12.90
2022-11-15T04:37:52.446Z,12.83
2022-11-15T04:40:37.814Z,14.60
2022-11-15T04:43:23.036Z,13.00
2022-11-15T04:46:08.243Z,14.83
2022-11-15T04:48:58.295Z,12.80
2022-11-15T04:51:44.239Z,14.20
2022-11-15T04:54:29.278Z,15.07
2022-11-15T04:57:14.846Z,14.30
2022-11-15T05:00:00.069Z,15.23
2022-11-15T05:03:03.659Z,15.57
2022-11-15T05:05:48.743Z,16.87
2022-11-15T05:08:34.083Z,16.40
2022-11-15T05:11:19.120Z,16.43
2022-11-15T05:14:04.265Z,15.77
2022-11-15T05:16:49.371Z,15.77
2022-11-15T05:19:34.569Z,15.80
2022-11-15T05:22:20.046Z,14.90
2022-11-15T05:25:06.639Z,15.70
2022-11-15T05:27:52.034Z,15.17
2022-11-15T05:30:37.343Z,15.07
2022-11-15T05:33:22.444Z,16.03
2022-11-15T05:36:10.795Z,14.60
2022-11-15T05:38:56.150Z,15.43
2022-11-15T05:41:46.758Z,15.57
2022-11-15T05:44:32.330Z,15.53
2022-11-15T05:47:22.394Z,16.27
2022-11-15T05:50:07.683Z,18.13
2022-11-15T05:52:53.045Z,17.77
2022-11-15T05:55:39.267Z,17.70
2022-11-15T05:58:24.512Z,15.93
2022-11-15T06:01:10.118Z,18.67
2022-11-15T06:03:55.066Z,19.37
2022-11-15T06:06:40.341Z,19.17
2022-11-15T06:09:25.529Z,19.80
2022-11-15T06:12:10.782Z,19.33
2022-11-15T06:14:55.884Z,21.27
2022-11-15T06:17:41.211Z,21.47
2022-11-15T06:20:26.828Z,20.87
2022-11-15T06:23:11.969Z,20.77
2022-11-15T06:25:58.624Z,20.60
2022-11-15T06:28:43.569Z,20.80
2022-11-15T06:31:28.633Z,21.47
2022-11-15T06:34:13.993Z,21.40
2022-11-15T06:36:58.850Z,21.67
2022-11-15T06:39:44.067Z,23.07
2022-11-15T06:42:29.000Z,22.47
2022-11-15T06:45:13.987Z,22.17
2022-11-15T06:47:59.031Z,24.50
2022-11-15T06:50:44.009Z,23.07
2022-11-15T06:53:30.609Z,21.57
2022-11-15T06:56:16.214Z,23.90
2022-11-15T06:59:01.776Z,23.50
2022-11-15T07:01:47.196Z,22.70
2022-11-15T07:04:32.511Z,23.30
2022-11-15T07:07:17.723Z,23.37
2022-11-15T07:10:03.306Z,24.17
2022-11-15T07:12:49.750Z,24.53
2022-11-15T07:15:34.879Z,24.30
2022-11-15T07:18:20.199Z,25.13
2022-11-15T07:21:06.508Z,23.07
2022-11-15T07:23:52.237Z,22.57
2022-11-15T07:26:37.391Z,22.67
2022-11-15T07:29:22.688Z,21.03
2022-11-15T07:32:07.614Z,22.13
2022-11-15T07:34:52.862Z,21.17
2022-11-15T07:37:38.087Z,21.93
2022-11-15T07:40:23.767Z,21.37
2022-11-15T07:43:09.437Z,20.20
2022-11-15T07:45:58.828Z,20.27
2022-11-15T07:48:45.693Z,21.03
2022-11-15T07:51:30.872Z,20.10
2022-11-15T07:54:15.885Z,21.87
2022-11-15T07:57:06.684Z,20.30
2022-11-15T07:59:52.536Z,19.23
2022-11-15T08:02:37.720Z,18.73
2022-11-15T08:05:23.131Z,18.80
2022-11-15T08:08:09.886Z,18.63
2022-11-15T08:10:55.067Z,18.60
2022-11-15T08:13:40.153Z,18.27
2022-11-15T08:16:25.657Z,16.63
2022-11-15T08:19:11.092Z,17.27
2022-11-15T08:21:56.145Z,17.37
2022-11-15T08:24:41.460Z,16.80
2022-11-15T08:27:26.438Z,18.03
2022-11-15T08:30:12.228Z,16.40
2022-11-15T08:32:58.441Z,17.03
2022-11-15T08:35:44.399Z,15.53
2022-11-15T08:38:32.833Z,18.03
2022-11-15T08:41:25.256Z,16.40
2022-11-15T08:44:10.297Z,16.20
2022-11-15T08:46:55.309Z,16.27
2022-11-15T08:49:40.638Z,14.60
2022-11-15T08:52:25.646Z,15.57
2022-11-15T08:55:10.701Z,15.40
2022-11-15T08:57:57.966Z,15.23
2022-11-15T09:00:43.025Z,16.07
2022-11-15T09:03:27.903Z,15.43
2022-11-15T09:06:13.196Z,14.50
2022-11-15T09:08:58.685Z,14.60
2022-11-15T09:11:44.250Z,14.27
2022-11-15T09:14:29.289Z,14.00
2022-11-15T09:17:14.560Z,14.27
2022-11-15T09:19:59.660Z,13.67
2022-11-15T09:22:44.755Z,13.43
2022-11-15T09:25:29.847Z,13.17
2022-11-15T09:28:14.894Z,14.13
2022-11-15T09:31:00.788Z,12.93
2022-11-15T09:33:46.793Z,15.10
2022-11-15T09:36:31.722Z,13.50
2022-11-15T09:39:16.941Z,14.60
2022-11-15T09:42:07.084Z,12.20
2022-11-15T09:45:04.346Z,12.20
2022-11-15T09:47:49.553Z,11.77
2022-11-15T09:50:47.830Z,12.50
2022-11-15T09:53:17.085Z,11.83
2022-11-15T09:55:58.333Z,11.93
